Aviation Digital Data Service (ADDS)

Output produced by METARs form (2110 UTC 27 July 2016)
found at http://aviationweather.gov/adds/metars/
 
KEWR 272036Z 2721/2824 16008KT P6SM SCT070 
     FM280100 21004KT P6SM FEW250 
     FM281500 17007KT P6SM FEW060 BKN250 
     FM281900 16008KT P6SM SCT060 BKN150